createdAt,value
2019-05-12T00:00:48.429Z,89.3416
2019-05-12T00:01:51.309Z,89.9748
2019-05-12T00:02:54.310Z,89.6544
2019-05-12T00:03:58.062Z,89.8695
2019-05-12T00:05:01.289Z,90.2678
2019-05-12T00:06:04.327Z,89.8405
2019-05-12T00:07:08.703Z,90.1854
2019-05-12T00:08:12.328Z,90.1625
2019-05-12T00:09:15.300Z,90.2541
2019-05-12T00:10:18.306Z,89.9107
2019-05-12T00:11:21.299Z,90.1884
2019-05-12T00:12:24.351Z,90.2617
2019-05-12T00:13:27.888Z,90.1808
2019-05-12T00:14:31.299Z,89.9825
2019-05-12T00:15:34.320Z,90.0008
2019-05-12T00:16:38.437Z,90.0282
2019-05-12T00:17:41.368Z,90.1122
2019-05-12T00:18:43.276Z,90.1717
2019-05-12T00:19:47.912Z,90.3777
2019-05-12T00:20:51.287Z,90.3456
2019-05-12T00:21:54.295Z,90.9728
2019-05-12T00:22:58.143Z,91.0689
2019-05-12T00:24:01.315Z,90.8171
2019-05-12T00:25:04.299Z,90.1335
2019-05-12T00:26:07.929Z,90.4997
2019-05-12T00:27:11.315Z,90.8431
2019-05-12T00:28:14.330Z,90.6203
2019-05-12T00:29:18.459Z,90.5470
2019-05-12T00:30:21.285Z,90.7073
2019-05-12T00:31:24.342Z,90.7057
2019-05-12T00:32:28.185Z,90.6294
2019-05-12T00:33:30.307Z,89.3141
2019-05-12T00:34:32.423Z,89.1325
2019-05-12T00:35:37.849Z,88.3711
2019-05-12T00:36:41.316Z,88.4581
2019-05-12T00:37:44.325Z,88.7526
2019-05-12T00:38:48.495Z,88.3589
2019-05-12T00:39:51.326Z,89.1585
2019-05-12T00:40:54.319Z,89.0318
2019-05-12T00:41:58.641Z,88.6000
2019-05-12T00:43:02.366Z,87.8965
2019-05-12T00:44:05.304Z,86.2623
2019-05-12T00:45:08.338Z,86.2104
2019-05-12T00:46:11.326Z,85.7755
2019-05-12T00:47:14.266Z,86.3951
2019-05-12T00:48:17.823Z,86.7460
2019-05-12T00:49:21.306Z,86.6514
2019-05-12T00:50:24.362Z,86.9108
2019-05-12T00:51:28.845Z,87.6753
2019-05-12T00:52:32.295Z,87.1778
2019-05-12T00:53:40.142Z,86.7384
2019-05-12T00:54:43.318Z,87.3182
2019-05-12T00:55:47.661Z,87.1229
2019-05-12T00:56:49.293Z,87.1534
2019-05-12T00:57:52.341Z,87.0817
2019-05-12T00:58:55.395Z,87.1397
2019-05-12T01:00:00.319Z,86.7750
2019-05-12T01:01:02.264Z,86.8879
2019-05-12T01:02:05.305Z,86.0456
2019-05-12T01:03:08.882Z,85.0477
2019-05-12T01:04:11.316Z,84.9393
2019-05-12T01:05:14.320Z,85.4063
2019-05-12T01:06:17.801Z,86.1021
2019-05-12T01:07:21.301Z,86.1784
2019-05-12T01:08:24.313Z,85.7359
2019-05-12T01:09:28.143Z,85.0858
2019-05-12T01:10:31.301Z,85.2369
2019-05-12T01:11:34.377Z,85.1270
2019-05-12T01:12:38.288Z,85.4185
2019-05-12T01:13:41.309Z,85.0401
2019-05-12T01:14:44.325Z,84.8875
2019-05-12T01:15:48.151Z,84.0452
2019-05-12T01:16:51.291Z,84.5365
2019-05-12T01:17:54.293Z,84.2618
2019-05-12T01:18:58.587Z,84.5869
2019-05-12T01:20:01.311Z,82.5772
2019-05-12T01:21:04.289Z,83.0472
2019-05-12T01:22:08.092Z,82.3240
2019-05-12T01:23:11.329Z,82.2690
2019-05-12T01:24:13.305Z,82.7329
2019-05-12T01:25:17.625Z,81.8860
2019-05-12T01:26:20.330Z,81.6876
2019-05-12T01:27:23.290Z,81.9821
2019-05-12T01:28:27.859Z,80.7828
2019-05-12T01:29:31.288Z,81.5152
2019-05-12T01:30:33.345Z,80.5447
2019-05-12T01:31:37.802Z,81.1398
2019-05-12T01:32:41.308Z,80.2747
2019-05-12T01:33:44.341Z,80.8316
2019-05-12T01:34:48.680Z,80.7782
2019-05-12T01:35:51.321Z,80.5936
2019-05-12T01:36:54.298Z,81.5595
2019-05-12T01:38:01.073Z,80.6210
2019-05-12T01:39:04.309Z,80.6439
2019-05-12T01:40:08.910Z,80.7828
2019-05-12T01:41:12.287Z,80.5356
2019-05-12T01:42:18.063Z,81.2573
2019-05-12T01:43:21.441Z,81.1292
2019-05-12T01:44:24.304Z,80.9552
2019-05-12T01:45:28.836Z,80.7767
2019-05-12T01:46:32.324Z,80.2869
2019-05-12T01:47:35.299Z,80.2869
2019-05-12T01:48:38.298Z,80.7233
2019-05-12T01:49:41.292Z,80.5631
2019-05-12T01:50:44.325Z,80.7263
2019-05-12T01:51:47.637Z,80.8743
2019-05-12T01:52:50.320Z,80.8515
2019-05-12T01:54:07.865Z,80.6851
2019-05-12T01:55:01.319Z,81.2802
2019-05-12T01:56:04.330Z,81.3596
2019-05-12T01:57:08.134Z,81.5427
2019-05-12T01:58:11.308Z,81.2619
2019-05-12T01:59:14.325Z,81.3809
2019-05-12T02:00:18.369Z,80.8789
2019-05-12T02:01:21.306Z,81.1749
2019-05-12T02:02:24.268Z,81.4679
2019-05-12T02:03:28.392Z,81.2039
2019-05-12T02:04:31.308Z,81.3397
2019-05-12T02:05:34.338Z,81.0986
2019-05-12T02:06:38.644Z,81.1582
2019-05-12T02:07:42.297Z,81.3672
2019-05-12T02:08:47.609Z,81.3947
2019-05-12T02:09:51.332Z,81.4450
2019-05-12T02:10:54.271Z,81.1627
2019-05-12T02:11:58.229Z,81.6373
2019-05-12T02:13:01.310Z,81.4038
2019-05-12T02:14:04.328Z,81.6617
2019-05-12T02:15:08.172Z,81.5732
2019-05-12T02:16:11.286Z,81.7899
2019-05-12T02:17:14.323Z,81.7014
2019-05-12T02:18:17.787Z,81.7853
2019-05-12T02:19:21.327Z,81.7029
2019-05-12T02:20:24.278Z,81.8128
2019-05-12T02:21:27.942Z,81.9577
2019-05-12T02:22:31.310Z,81.0925
2019-05-12T02:23:34.314Z,81.3596
2019-05-12T02:24:39.025Z,82.0829
2019-05-12T02:25:42.302Z,81.9135
2019-05-12T02:26:45.296Z,82.3377
2019-05-12T02:27:48.301Z,81.5229
2019-05-12T02:28:51.338Z,81.5274
2019-05-12T02:29:54.304Z,81.6846
2019-05-12T02:30:58.998Z,81.8799
2019-05-12T02:32:02.290Z,82.2873
2019-05-12T02:33:05.219Z,82.4796
2019-05-12T02:34:07.707Z,82.9786
2019-05-12T02:35:10.312Z,82.2477
2019-05-12T02:36:15.088Z,82.2751
2019-05-12T02:37:18.280Z,81.5930
2019-05-12T02:38:21.284Z,81.3443
2019-05-12T02:39:25.009Z,81.6159
2019-05-12T02:40:27.334Z,80.5936
2019-05-12T02:41:30.284Z,80.2319
2019-05-12T02:42:34.926Z,78.3459
2019-05-12T02:43:38.312Z,79.0967
2019-05-12T02:44:43.700Z,79.0875
2019-05-12T02:45:47.286Z,78.2330
2019-05-12T02:46:50.268Z,78.4527
2019-05-12T02:47:54.306Z,78.2559
2019-05-12T02:48:57.295Z,78.0713
2019-05-12T02:50:00.315Z,78.1277
2019-05-12T02:51:05.492Z,78.2742
2019-05-12T02:52:07.317Z,78.4192
2019-05-12T02:53:10.288Z,77.8119
2019-05-12T02:54:14.388Z,76.7498
2019-05-12T02:55:17.296Z,77.4624
2019-05-12T02:56:20.305Z,76.5255
2019-05-12T02:57:25.535Z,77.4868
2019-05-12T02:58:29.276Z,77.4807
2019-05-12T02:59:34.723Z,78.1353
2019-05-12T03:00:38.347Z,77.7523
2019-05-12T03:01:41.294Z,78.2361
2019-05-12T03:02:44.397Z,77.8653
2019-05-12T03:03:47.289Z,77.6287
2019-05-12T03:04:50.376Z,78.1079
2019-05-12T03:05:54.858Z,78.6160
2019-05-12T03:07:02.078Z,78.1720
2019-05-12T03:08:06.289Z,78.3017
2019-05-12T03:09:09.305Z,78.0713
2019-05-12T03:10:14.584Z,78.0316
2019-05-12T03:11:17.334Z,78.2452
2019-05-12T03:12:20.252Z,78.3520
2019-05-12T03:13:25.030Z,78.2101
2019-05-12T03:14:28.294Z,78.2971
2019-05-12T03:15:31.299Z,78.2147
2019-05-12T03:16:35.110Z,78.5763
2019-05-12T03:17:38.279Z,78.2040
2019-05-12T03:18:44.685Z,78.2818
2019-05-12T03:19:48.299Z,77.6150
2019-05-12T03:20:54.079Z,77.9156
2019-05-12T03:21:57.288Z,78.5672
2019-05-12T03:23:00.328Z,78.3688
2019-05-12T03:24:05.697Z,78.6023
2019-05-12T03:25:19.958Z,77.4090
2019-05-12T03:26:17.307Z,77.8897
2019-05-12T03:27:20.320Z,78.0911
2019-05-12T03:28:25.610Z,77.6547
2019-05-12T03:29:29.316Z,77.8393
2019-05-12T03:30:37.135Z,77.7432
2019-05-12T03:31:41.332Z,78.1048
2019-05-12T03:32:47.229Z,77.8744
2019-05-12T03:33:54.249Z,78.2513
2019-05-12T03:34:59.356Z,77.4868
2019-05-12T03:36:08.434Z,77.7340
2019-05-12T03:37:10.329Z,77.9034
2019-05-12T03:38:14.820Z,77.3709
2019-05-12T03:39:18.266Z,77.1466
2019-05-12T03:40:24.693Z,77.7554
2019-05-12T03:41:28.300Z,77.9202
2019-05-12T03:42:31.293Z,78.0316
2019-05-12T03:43:35.136Z,78.0636
2019-05-12T03:44:38.347Z,78.0224
2019-05-12T03:45:44.978Z,78.3597
2019-05-12T03:46:47.288Z,78.6816
2019-05-12T03:47:50.299Z,79.7742
2019-05-12T03:48:55.365Z,79.9268
2019-05-12T03:49:58.340Z,79.9344
2019-05-12T03:51:01.284Z,79.3408
2019-05-12T03:52:05.228Z,79.7024
2019-05-12T03:53:10.839Z,79.4766
2019-05-12T03:54:15.244Z,79.6231
2019-05-12T03:55:31.678Z,79.1058
2019-05-12T03:56:26.471Z,79.6750
2019-05-12T03:57:29.285Z,79.9084
2019-05-12T03:58:34.559Z,80.7721
2019-05-12T03:59:38.293Z,81.2222
2019-05-12T04:00:44.184Z,80.3601
2019-05-12T04:01:46.286Z,80.1877
2019-05-12T04:02:49.295Z,80.0137
2019-05-12T04:03:54.200Z,79.9390
2019-05-12T04:04:57.301Z,80.2548
2019-05-12T04:06:00.329Z,80.6622
2019-05-12T04:07:05.133Z,80.5814
2019-05-12T04:08:08.316Z,81.4404
2019-05-12T04:09:11.292Z,81.6281
2019-05-12T04:10:15.598Z,79.3164
2019-05-12T04:11:19.308Z,79.8627
2019-05-12T04:12:25.302Z,80.0824
2019-05-12T04:13:28.248Z,79.5010
2019-05-12T04:14:34.367Z,78.9837
2019-05-12T04:15:37.313Z,79.3317
2019-05-12T04:16:40.335Z,78.6435
2019-05-12T04:17:45.231Z,78.9883
2019-05-12T04:18:48.289Z,78.8968
2019-05-12T04:19:51.347Z,78.0072
2019-05-12T04:20:54.587Z,78.4421
2019-05-12T04:21:57.349Z,79.0112
2019-05-12T04:23:00.279Z,79.0890
2019-05-12T04:24:05.556Z,78.7091
2019-05-12T04:25:08.328Z,79.3027
2019-05-12T04:26:15.736Z,79.6643
2019-05-12T04:27:19.266Z,79.6643
2019-05-12T04:28:24.559Z,80.0275
2019-05-12T04:29:27.286Z,80.5814
2019-05-12T04:30:30.356Z,80.6500
2019-05-12T04:31:34.759Z,80.8881
2019-05-12T04:32:38.297Z,81.0895
2019-05-12T04:33:41.307Z,81.6068
2019-05-12T04:34:44.732Z,81.2985
2019-05-12T04:35:48.331Z,81.9547
2019-05-12T04:36:51.320Z,81.6434
2019-05-12T04:37:55.290Z,82.0172
2019-05-12T04:38:58.289Z,80.7721
2019-05-12T04:40:01.316Z,80.9644
2019-05-12T04:41:05.863Z,80.9598
2019-05-12T04:42:09.265Z,79.9207
2019-05-12T04:43:14.560Z,79.5636
2019-05-12T04:44:17.282Z,80.4883
2019-05-12T04:45:20.323Z,80.3479
2019-05-12T04:46:25.284Z,80.4852
2019-05-12T04:47:27.310Z,79.5834
2019-05-12T04:48:30.291Z,80.8270
2019-05-12T04:49:34.626Z,80.0122
2019-05-12T04:50:37.325Z,79.2081
2019-05-12T04:51:40.279Z,79.1669
2019-05-12T04:52:44.648Z,80.6302
2019-05-12T04:53:48.272Z,80.9613
2019-05-12T04:54:51.292Z,82.0005
2019-05-12T04:56:09.662Z,81.8265
2019-05-12T04:57:04.178Z,80.5127
2019-05-12T04:58:07.286Z,80.2915
2019-05-12T04:59:10.301Z,78.9181
2019-05-12T05:00:15.860Z,79.6185
2019-05-12T05:01:19.287Z,79.6551
2019-05-12T05:02:25.060Z,79.1211
2019-05-12T05:03:28.300Z,79.0845
2019-05-12T05:04:31.320Z,77.5540
2019-05-12T05:05:35.324Z,77.6730
2019-05-12T05:06:39.295Z,77.6181
2019-05-12T05:07:44.834Z,78.3703
2019-05-12T05:08:48.295Z,77.5967
2019-05-12T05:09:51.326Z,78.2742
2019-05-12T05:10:54.885Z,77.9538
2019-05-12T05:11:58.299Z,77.4304
2019-05-12T05:13:01.290Z,76.9085
2019-05-12T05:14:04.460Z,77.1801
2019-05-12T05:15:07.326Z,77.4228
2019-05-12T05:16:10.316Z,77.0245
2019-05-12T05:17:15.072Z,76.2951
2019-05-12T05:18:18.288Z,75.5489
2019-05-12T05:19:21.264Z,75.6375
2019-05-12T05:20:24.349Z,76.0586
2019-05-12T05:21:27.283Z,75.1751
2019-05-12T05:22:30.254Z,74.7692
2019-05-12T05:23:33.588Z,75.0332
2019-05-12T05:24:35.304Z,75.4803
2019-05-12T05:25:38.358Z,74.7295
2019-05-12T05:26:43.448Z,75.7519
2019-05-12T05:27:46.312Z,75.2148
2019-05-12T05:28:49.268Z,75.0774
2019-05-12T05:29:54.184Z,74.7204
2019-05-12T05:30:57.287Z,74.6502
2019-05-12T05:32:00.289Z,74.2977
2019-05-12T05:33:04.490Z,74.7066
2019-05-12T05:34:08.278Z,75.2483
2019-05-12T05:35:13.301Z,75.1247
2019-05-12T05:36:19.746Z,75.0103
2019-05-12T05:37:23.921Z,75.4681
2019-05-12T05:38:27.290Z,75.7321
2019-05-12T05:39:30.300Z,74.8562
2019-05-12T05:40:35.359Z,74.5357
2019-05-12T05:41:40.337Z,73.9956
2019-05-12T05:42:47.285Z,73.9101
2019-05-12T05:43:54.278Z,74.1649
2019-05-12T05:44:57.269Z,73.6614
2019-05-12T05:46:07.048Z,73.7728
2019-05-12T05:47:10.337Z,73.7301
2019-05-12T05:48:13.705Z,73.6309
2019-05-12T05:49:16.301Z,73.6263
2019-05-12T05:50:25.106Z,73.1777
2019-05-12T05:51:27.332Z,73.0159
2019-05-12T05:52:33.062Z,72.5963
2019-05-12T05:53:38.306Z,73.1685
2019-05-12T05:54:41.271Z,73.7163
2019-05-12T05:55:44.342Z,73.6400
2019-05-12T05:56:57.498Z,74.3816
2019-05-12T05:57:59.708Z,73.9284
2019-05-12T05:59:05.337Z,74.3389
2019-05-12T06:00:17.320Z,74.3770
2019-05-12T06:01:16.355Z,74.3862
2019-05-12T06:02:24.440Z,74.3160
2019-05-12T06:03:28.054Z,74.2214
2019-05-12T06:04:31.298Z,74.0383
2019-05-12T06:05:38.544Z,74.1344
2019-05-12T06:06:50.405Z,73.6751
2019-05-12T06:07:50.304Z,73.2448
2019-05-12T06:08:54.496Z,73.4646
2019-05-12T06:09:57.317Z,72.7703
2019-05-12T06:11:00.300Z,72.6284
2019-05-12T06:12:05.280Z,73.3181
2019-05-12T06:13:11.253Z,73.1579
2019-05-12T06:14:16.276Z,73.6538
2019-05-12T06:15:19.285Z,74.1970
2019-05-12T06:16:25.088Z,74.4732
2019-05-12T06:17:28.290Z,74.7936
2019-05-12T06:18:33.305Z,74.8074
2019-05-12T06:19:36.306Z,74.5556
2019-05-12T06:20:39.268Z,73.4142
2019-05-12T06:21:44.055Z,74.1924
2019-05-12T06:22:48.603Z,72.9656
2019-05-12T06:23:55.315Z,73.1807
2019-05-12T06:24:59.004Z,73.1090
2019-05-12T06:26:04.352Z,72.2972
2019-05-12T06:27:15.112Z,72.9671
2019-05-12T06:28:16.264Z,73.5973
2019-05-12T06:29:20.789Z,72.9580
2019-05-12T06:30:25.288Z,72.9244
2019-05-12T06:31:29.806Z,73.7270
2019-05-12T06:32:33.675Z,73.6126
2019-05-12T06:33:36.507Z,73.1823
2019-05-12T06:34:39.299Z,73.2143
2019-05-12T06:35:45.124Z,73.4508
2019-05-12T06:36:48.335Z,73.7820
2019-05-12T06:38:00.185Z,73.8323
2019-05-12T06:38:59.297Z,73.5393
2019-05-12T06:40:03.589Z,73.5424
2019-05-12T06:41:06.333Z,73.5439
2019-05-12T06:42:14.134Z,72.7520
2019-05-12T06:43:17.335Z,72.4987
2019-05-12T06:44:20.272Z,72.0562
2019-05-12T06:45:23.530Z,72.4163
2019-05-12T06:46:26.300Z,73.3471
2019-05-12T06:47:28.327Z,73.4890
2019-05-12T06:48:33.210Z,73.8491
2019-05-12T06:49:36.309Z,73.7072
2019-05-12T06:50:39.567Z,73.9605
2019-05-12T06:51:44.295Z,73.7621
2019-05-12T06:52:49.123Z,73.9361
2019-05-12T06:53:53.463Z,74.0795
2019-05-12T06:54:56.810Z,73.3455
2019-05-12T06:56:00.318Z,73.1945
2019-05-12T06:57:18.548Z,73.3227
2019-05-12T06:58:13.811Z,73.0938
2019-05-12T06:59:17.338Z,73.1136
2019-05-12T07:00:22.378Z,72.7108
2019-05-12T07:01:28.315Z,72.2393
2019-05-12T07:02:37.188Z,72.1920
2019-05-12T07:03:39.281Z,72.2988
2019-05-12T07:04:47.498Z,72.9442
2019-05-12T07:05:50.270Z,72.7184
2019-05-12T07:06:56.086Z,72.4666
2019-05-12T07:08:04.000Z,72.2606
2019-05-12T07:09:09.864Z,72.0638
2019-05-12T07:10:35.172Z,71.2825
2019-05-12T07:11:24.292Z,70.8553
2019-05-12T07:12:32.781Z,71.5053
2019-05-12T07:13:34.362Z,71.7296
2019-05-12T07:14:37.328Z,71.8456
2019-05-12T07:15:40.730Z,72.8695
2019-05-12T07:16:44.296Z,73.4249
2019-05-12T07:17:49.738Z,73.2876
2019-05-12T07:18:54.176Z,73.0129
2019-05-12T07:19:58.363Z,72.7504
2019-05-12T07:21:01.334Z,71.7891
2019-05-12T07:22:18.844Z,72.2194
2019-05-12T07:23:14.261Z,72.3293
2019-05-12T07:24:17.330Z,72.0363
2019-05-12T07:25:22.933Z,72.2393
2019-05-12T07:26:28.308Z,72.2927
2019-05-12T07:27:36.814Z,72.0974
2019-05-12T07:28:40.471Z,72.2210
2019-05-12T07:29:43.667Z,71.4275
2019-05-12T07:30:46.294Z,71.4733
2019-05-12T07:31:49.294Z,71.3237
2019-05-12T07:32:59.379Z,72.3034
2019-05-12T07:34:00.285Z,72.5353
2019-05-12T07:35:03.913Z,71.9554
2019-05-12T07:36:07.270Z,70.7057
2019-05-12T07:37:10.283Z,71.1086
2019-05-12T07:38:20.970Z,71.8029
2019-05-12T07:39:21.299Z,72.1294
2019-05-12T07:40:29.719Z,70.5959
2019-05-12T07:41:34.201Z,71.8914
2019-05-12T07:42:39.536Z,70.6630
2019-05-12T07:43:44.357Z,70.6264
2019-05-12T07:44:47.322Z,71.1254
2019-05-12T07:45:53.979Z,71.6716
2019-05-12T07:46:58.316Z,70.8339
2019-05-12T07:48:08.144Z,70.7866
2019-05-12T07:49:09.304Z,71.0033
2019-05-12T07:50:16.192Z,71.7754
2019-05-12T07:51:20.306Z,71.0338
2019-05-12T07:52:24.235Z,70.8019
2019-05-12T07:53:27.319Z,70.5730
2019-05-12T07:54:35.344Z,70.5440
2019-05-12T07:55:39.856Z,70.5898
2019-05-12T07:56:46.300Z,70.7912
2019-05-12T07:57:55.368Z,71.0079
2019-05-12T07:58:57.344Z,69.7993
2019-05-12T08:00:00.294Z,69.1173
2019-05-12T08:01:07.662Z,69.3095
2019-05-12T08:02:10.280Z,69.5155
2019-05-12T08:03:19.005Z,69.1386
2019-05-12T08:04:21.303Z,68.6305
2019-05-12T08:05:24.326Z,68.4749
2019-05-12T08:06:31.870Z,69.3217
2019-05-12T08:07:35.307Z,68.2429
2019-05-12T08:08:41.884Z,68.9052
2019-05-12T08:09:46.326Z,69.1203
2019-05-12T08:10:51.503Z,68.6137
2019-05-12T08:11:56.342Z,67.5593
2019-05-12T08:13:00.883Z,67.9759
2019-05-12T08:14:04.288Z,65.8808
2019-05-12T08:15:09.596Z,65.1804
2019-05-12T08:16:14.171Z,67.2221
2019-05-12T08:17:19.658Z,67.1717
2019-05-12T08:18:24.616Z,66.5766
2019-05-12T08:19:28.575Z,67.4006
2019-05-12T08:20:31.305Z,67.0161
2019-05-12T08:21:34.757Z,68.5206
2019-05-12T08:22:43.609Z,65.5787
2019-05-12T08:23:47.308Z,67.2175
2019-05-12T08:24:50.312Z,67.5792
2019-05-12T08:25:54.025Z,65.9571
2019-05-12T08:27:03.332Z,66.8376
2019-05-12T08:28:14.968Z,66.2287
2019-05-12T08:29:16.889Z,66.2226
2019-05-12T08:30:21.271Z,69.0532
2019-05-12T08:31:31.894Z,66.5949
2019-05-12T08:32:33.869Z,66.2089
2019-05-12T08:33:37.291Z,66.2013
2019-05-12T08:34:40.311Z,66.0304
2019-05-12T08:35:43.902Z,62.7024
2019-05-12T08:36:53.276Z,64.1642
2019-05-12T08:37:55.307Z,66.8101
2019-05-12T08:38:58.316Z,65.3345
2019-05-12T08:40:04.366Z,64.6525
2019-05-12T08:41:09.285Z,64.4099
2019-05-12T08:42:14.377Z,63.9353
2019-05-12T08:43:17.291Z,63.8376
2019-05-12T08:44:24.842Z,64.5975
2019-05-12T08:45:34.002Z,62.6398
2019-05-12T08:46:36.292Z,59.9939
2019-05-12T08:47:39.365Z,60.5417
2019-05-12T08:48:44.390Z,59.8749
2019-05-12T08:49:55.156Z,60.0626
2019-05-12T08:50:56.315Z,60.2396
2019-05-12T08:52:00.360Z,58.2956
2019-05-12T08:53:04.704Z,58.8022
2019-05-12T08:54:08.501Z,59.8932
2019-05-12T08:55:13.856Z,58.4955
2019-05-12T08:56:22.886Z,59.3256
2019-05-12T08:57:34.827Z,59.0097
2019-05-12T08:58:47.301Z,61.4404
2019-05-12T08:59:44.119Z,61.0452
2019-05-12T09:00:50.307Z,61.1383
2019-05-12T09:01:54.297Z,61.7380
2019-05-12T09:02:57.327Z,61.1978
2019-05-12T09:04:05.423Z,61.5961
2019-05-12T09:05:08.299Z,61.5900
2019-05-12T09:06:17.919Z,59.4934
2019-05-12T09:07:19.304Z,60.0015
2019-05-12T09:08:24.218Z,60.1938
2019-05-12T09:09:27.271Z,59.6368
2019-05-12T09:10:30.326Z,59.5392
2019-05-12T09:11:33.688Z,59.1150
2019-05-12T09:12:37.303Z,58.2895
2019-05-12T09:13:40.340Z,57.9156
2019-05-12T09:14:46.161Z,58.4451
2019-05-12T09:15:49.343Z,59.6399
2019-05-12T09:16:53.670Z,60.2167
2019-05-12T09:18:00.370Z,60.6943
2019-05-12T09:19:04.883Z,59.5163
2019-05-12T09:20:08.656Z,60.3220
2019-05-12T09:21:14.054Z,57.7905
2019-05-12T09:22:20.836Z,60.2182
2019-05-12T09:23:24.350Z,58.8724
2019-05-12T09:24:27.551Z,56.6781
2019-05-12T09:25:30.357Z,57.3922
2019-05-12T09:26:34.438Z,56.6567
2019-05-12T09:27:39.452Z,57.1099
2019-05-12T09:28:50.086Z,54.9020
2019-05-12T09:29:54.014Z,51.0430
2019-05-12T09:30:57.403Z,52.3445
2019-05-12T09:32:05.467Z,54.2809
2019-05-12T09:33:08.331Z,56.9635
2019-05-12T09:34:13.482Z,56.3622
2019-05-12T09:35:19.307Z,57.1130
2019-05-12T09:36:24.278Z,57.4060
2019-05-12T09:37:30.909Z,56.3729
2019-05-12T09:38:35.331Z,55.7626
2019-05-12T09:39:42.454Z,56.1059
2019-05-12T09:40:46.329Z,56.8307
2019-05-12T09:41:52.583Z,56.7926
2019-05-12T09:43:00.250Z,57.2061
2019-05-12T09:44:05.311Z,55.2880
2019-05-12T09:45:10.504Z,56.3897
2019-05-12T09:46:14.518Z,57.7142
2019-05-12T09:47:22.948Z,58.2208
2019-05-12T09:48:25.338Z,58.5641
2019-05-12T09:49:38.451Z,57.7127
2019-05-12T09:50:36.310Z,57.9660
2019-05-12T09:51:45.649Z,57.4701
2019-05-12T09:52:50.186Z,57.9339
2019-05-12T09:53:55.562Z,57.1649
2019-05-12T09:54:59.307Z,56.6690
2019-05-12T09:56:04.349Z,55.8770
2019-05-12T09:57:07.363Z,55.1492
2019-05-12T09:58:13.976Z,56.8383
2019-05-12T09:59:22.568Z,55.7488
2019-05-12T10:00:25.334Z,54.1253
2019-05-12T10:01:29.267Z,55.1965
2019-05-12T10:02:36.336Z,53.5210
2019-05-12T10:03:40.154Z,54.9294
2019-05-12T10:04:43.765Z,53.5607
2019-05-12T10:05:46.311Z,52.8161
2019-05-12T10:06:49.355Z,55.5856
2019-05-12T10:07:53.623Z,55.8495
2019-05-12T10:08:56.308Z,54.1604
2019-05-12T10:09:59.173Z,56.0845
2019-05-12T10:11:03.723Z,53.0953
2019-05-12T10:12:07.321Z,54.0063
2019-05-12T10:13:10.305Z,52.5765
2019-05-12T10:14:13.975Z,53.9330
2019-05-12T10:15:18.710Z,53.5927
2019-05-12T10:16:25.304Z,52.9717
2019-05-12T10:17:30.135Z,54.8806
2019-05-12T10:18:33.646Z,55.2316
2019-05-12T10:19:37.314Z,54.6273
2019-05-12T10:20:40.283Z,53.5424
2019-05-12T10:21:44.013Z,53.1624
2019-05-12T10:22:47.328Z,53.9513
2019-05-12T10:23:51.517Z,54.2794
2019-05-12T10:24:58.701Z,54.3313
2019-05-12T10:26:09.471Z,52.9381
2019-05-12T10:27:10.317Z,53.3959
2019-05-12T10:28:15.898Z,52.0058
2019-05-12T10:29:20.804Z,51.3542
2019-05-12T10:30:24.289Z,51.6396
2019-05-12T10:31:29.529Z,52.4483
2019-05-12T10:32:35.315Z,51.5618
2019-05-12T10:33:38.318Z,52.2469
2019-05-12T10:34:41.290Z,53.4295
2019-05-12T10:35:44.315Z,52.4727
2019-05-12T10:36:49.220Z,53.3333
2019-05-12T10:37:53.745Z,54.2611
2019-05-12T10:38:57.326Z,53.3333
2019-05-12T10:40:00.340Z,53.3059
2019-05-12T10:41:04.319Z,53.3837
2019-05-12T10:42:07.292Z,53.9269
2019-05-12T10:43:10.363Z,53.6217
2019-05-12T10:44:13.931Z,54.0291
2019-05-12T10:45:20.605Z,53.1914
2019-05-12T10:46:28.627Z,55.1827
2019-05-12T10:47:34.262Z,53.8170
2019-05-12T10:48:38.357Z,53.6721
2019-05-12T10:49:41.310Z,53.2677
2019-05-12T10:50:44.248Z,54.0093
2019-05-12T10:51:47.778Z,53.5439
2019-05-12T10:52:53.519Z,53.3455
2019-05-12T10:54:01.965Z,53.5897
2019-05-12T10:55:04.515Z,54.5830
2019-05-12T10:56:06.288Z,54.9111
2019-05-12T10:57:09.363Z,54.4594
2019-05-12T10:58:14.346Z,54.4396
2019-05-12T10:59:29.167Z,54.5647
2019-05-12T11:00:26.854Z,54.9493
2019-05-12T11:01:30.292Z,53.0587
2019-05-12T11:02:33.680Z,53.2860
2019-05-12T11:03:37.311Z,53.4463
2019-05-12T11:04:41.281Z,54.1466
2019-05-12T11:05:46.354Z,52.8893
2019-05-12T11:06:49.328Z,53.2921
2019-05-12T11:07:53.978Z,53.6034
2019-05-12T11:08:57.334Z,53.0434
2019-05-12T11:10:03.536Z,50.7469
2019-05-12T11:11:08.325Z,51.6426
2019-05-12T11:12:13.663Z,52.5582
2019-05-12T11:13:18.109Z,50.2876
2019-05-12T11:14:26.320Z,49.9626
2019-05-12T11:15:29.297Z,52.3018
2019-05-12T11:16:34.453Z,51.7266
2019-05-12T11:17:40.174Z,52.5628
2019-05-12T11:18:43.731Z,49.6376
2019-05-12T11:19:51.335Z,50.1366
2019-05-12T11:20:55.306Z,50.0832
2019-05-12T11:21:58.280Z,49.0669
2019-05-12T11:23:03.298Z,48.9876
2019-05-12T11:24:07.297Z,49.0166
2019-05-12T11:25:10.389Z,49.9596
2019-05-12T11:26:14.184Z,48.9845
2019-05-12T11:27:17.332Z,49.3172
2019-05-12T11:28:20.326Z,49.4789
2019-05-12T11:29:23.641Z,48.3742
2019-05-12T11:30:27.339Z,49.4179
2019-05-12T11:31:30.281Z,51.5480
2019-05-12T11:32:34.928Z,50.5852
2019-05-12T11:33:43.471Z,51.1681
2019-05-12T11:34:47.308Z,51.3542
2019-05-12T11:35:50.343Z,52.6818
2019-05-12T11:36:54.532Z,51.2078
2019-05-12T11:37:56.279Z,51.3268
2019-05-12T11:38:59.298Z,50.3029
2019-05-12T11:40:04.272Z,50.5577
2019-05-12T11:41:09.908Z,51.3039
2019-05-12T11:42:15.286Z,51.0018
2019-05-12T11:43:18.318Z,49.9031
2019-05-12T11:44:23.177Z,51.9814
2019-05-12T11:45:26.371Z,52.2240
2019-05-12T11:46:29.265Z,52.2164
2019-05-12T11:47:35.572Z,52.0958
2019-05-12T11:48:45.184Z,52.9809
2019-05-12T11:49:48.281Z,53.0632
2019-05-12T11:50:51.472Z,52.8695
2019-05-12T11:51:54.495Z,53.3227
2019-05-12T11:52:57.300Z,52.7291
2019-05-12T11:54:03.414Z,52.7703
2019-05-12T11:55:08.295Z,53.4478
2019-05-12T11:56:10.332Z,52.0058
2019-05-12T11:57:13.310Z,51.8578
2019-05-12T11:58:16.338Z,53.0983
2019-05-12T11:59:19.305Z,51.7082
2019-05-12T12:00:24.197Z,51.9600
2019-05-12T12:01:27.335Z,49.1127
2019-05-12T12:02:30.630Z,49.4835
2019-05-12T12:03:34.290Z,47.4098
2019-05-12T12:04:37.315Z,48.1224
2019-05-12T12:05:40.285Z,48.7037
2019-05-12T12:06:43.811Z,46.8513
2019-05-12T12:07:51.379Z,45.8793
2019-05-12T12:08:54.298Z,46.4759
2019-05-12T12:09:59.444Z,46.1357
2019-05-12T12:11:03.975Z,44.0589
2019-05-12T12:12:07.539Z,44.4617
2019-05-12T12:13:10.281Z,45.5192
2019-05-12T12:14:14.269Z,44.8051
2019-05-12T12:15:20.472Z,43.1189
2019-05-12T12:16:25.334Z,44.0909
2019-05-12T12:17:31.017Z,47.4327
2019-05-12T12:18:35.312Z,40.9995
2019-05-12T12:19:43.851Z,44.1047
2019-05-12T12:20:46.322Z,42.0478
2019-05-12T12:21:50.155Z,42.2354
2019-05-12T12:22:54.259Z,43.9078
2019-05-12T12:23:57.320Z,42.9862
2019-05-12T12:25:03.186Z,42.1485
2019-05-12T12:26:08.324Z,43.4730
2019-05-12T12:27:11.316Z,47.5242
2019-05-12T12:28:14.366Z,48.1453
2019-05-12T12:29:17.289Z,48.7816
2019-05-12T12:30:20.315Z,49.4316
2019-05-12T12:31:23.832Z,46.9291
2019-05-12T12:32:27.343Z,48.2933
2019-05-12T12:33:31.130Z,48.3421
2019-05-12T12:34:38.320Z,48.6213
2019-05-12T12:35:41.372Z,47.6371
2019-05-12T12:36:44.260Z,46.8727
2019-05-12T12:37:47.343Z,49.1539
2019-05-12T12:38:50.296Z,47.8431
2019-05-12T12:39:53.662Z,49.0944
2019-05-12T12:40:57.283Z,48.6595
2019-05-12T12:42:00.897Z,50.9850
2019-05-12T12:43:04.333Z,49.9947
2019-05-12T12:44:07.273Z,49.1981
2019-05-12T12:45:10.346Z,47.9759
2019-05-12T12:46:18.178Z,47.2816
2019-05-12T12:47:23.691Z,43.6545
2019-05-12T12:48:29.741Z,41.6587
2019-05-12T12:49:33.947Z,44.1917
2019-05-12T12:50:37.283Z,44.8173
2019-05-12T12:51:40.310Z,45.3544
2019-05-12T12:52:44.855Z,48.7083
2019-05-12T12:53:51.358Z,46.7079
2019-05-12T12:54:54.407Z,48.0720
2019-05-12T12:55:58.672Z,48.3604
2019-05-12T12:57:06.322Z,47.8080